To NAV CANADA Home Page Login to a new session Search on AWWS site Feedback and Comments Disclaimer Vers la page française équivalente Tips FAQ What's new on the site To the Forecasts and Observations / NOTAM section To "File a Flight Plan" website Publications and other links Update of the User's profile FIC Telephone Numbers My Weather Data Folder Route Weather Data Regional Weather Data Local Weather Data To the Forecasts and Observations / NOTAM section
Request Generated 03/06/2015 at 14:07:06 UTC . Weather information available at that time is displayed.

METAR/TAF

BURWASH/YT    

METAR CYDB 061400Z AUTO 29003KT 200V290 9SM CLR M18/M19 A3000 RMK
SLP222=
METAR CYDB 061300Z AUTO 27002KT 9SM CLR M17/M18 A2998 RMK SLP213=
METAR CYDB 061200Z AUTO 00000KT 9SM CLR M15/M16 A2997 RMK SLP207=

TAF CYDB 061138Z 0612/0624 VRB03KT P6SM FEW040 TEMPO 0612/0615 2SM BR
RMK FCST BASED ON AUTO OBS. NXT FCST BY 061800Z=
Your time UTC time
Weather data provided by Environment Canada and NAV CANADA